createdAt,value
2017-09-14T00:02:03.299Z,20.5
2017-09-14T00:07:02.949Z,20.5
2017-09-14T00:12:02.976Z,20.5
2017-09-14T00:17:02.868Z,20.6
2017-09-14T00:22:03.028Z,20.5
2017-09-14T00:27:02.844Z,20.6
2017-09-14T00:32:03.688Z,20.6
2017-09-14T00:37:02.712Z,20.6
2017-09-14T00:42:03.480Z,20.6
2017-09-14T00:47:03.520Z,20.6
2017-09-14T00:52:03.438Z,20.6
2017-09-14T00:57:03.074Z,20.6
2017-09-14T01:02:02.953Z,20.5
2017-09-14T01:07:03.068Z,20.5
2017-09-14T01:12:03.092Z,20.6
2017-09-14T01:17:02.814Z,20.6
2017-09-14T01:22:02.985Z,20.5
2017-09-14T01:27:02.748Z,20.5
2017-09-14T01:32:03.562Z,20.4
2017-09-14T01:37:03.482Z,20.4
2017-09-14T01:42:03.255Z,20.4
2017-09-14T01:47:03.286Z,20.4
2017-09-14T01:52:03.184Z,20.4
2017-09-14T01:57:03.148Z,20.4
2017-09-14T02:02:03.081Z,20.3
2017-09-14T02:07:03.415Z,20.3
2017-09-14T02:12:03.584Z,20.3
2017-09-14T02:17:03.397Z,20.4
2017-09-14T02:22:03.060Z,20.4
2017-09-14T02:27:03.102Z,20.4
2017-09-14T02:32:03.130Z,20.4
2017-09-14T02:37:02.730Z,20.4
2017-09-14T02:42:03.101Z,20.4
2017-09-14T02:47:03.415Z,20.3
2017-09-14T02:52:02.740Z,20.3
2017-09-14T02:57:02.969Z,20.2
2017-09-14T03:02:03.342Z,20.1
2017-09-14T03:07:02.879Z,20.1
2017-09-14T03:12:03.258Z,20.2
2017-09-14T03:17:03.627Z,20.3
2017-09-14T03:22:03.055Z,20.2
2017-09-14T03:27:03.278Z,20.3
2017-09-14T03:32:03.644Z,20.3
2017-09-14T03:37:03.019Z,20.2
2017-09-14T03:42:03.290Z,18.3
2017-09-14T03:47:03.684Z,18.2
2017-09-14T03:52:02.965Z,17.8
2017-09-14T03:57:03.301Z,17.4
2017-09-14T04:02:02.707Z,16.6
2017-09-14T04:07:03.058Z,16.6
2017-09-14T04:12:03.491Z,16.2
2017-09-14T04:17:02.910Z,15.7
2017-09-14T04:22:03.116Z,15.7
2017-09-14T04:27:03.411Z,15.5
2017-09-14T04:32:02.915Z,15.5
2017-09-14T04:37:03.069Z,15.2
2017-09-14T04:42:03.341Z,15.2
2017-09-14T04:47:13.545Z,14.8
2017-09-14T04:52:03.232Z,14.8
2017-09-14T04:57:02.672Z,14.6
2017-09-14T05:02:13.237Z,14.3
2017-09-14T05:07:03.550Z,14.2
2017-09-14T05:12:03.020Z,14.2
2017-09-14T05:17:17.367Z,14.2
2017-09-14T05:22:02.918Z,14.0
2017-09-14T05:27:03.280Z,13.8
2017-09-14T05:32:13.643Z,13.7
2017-09-14T05:37:03.505Z,13.7
2017-09-14T05:42:03.294Z,13.7
2017-09-14T05:47:17.746Z,13.7
2017-09-14T05:52:02.865Z,13.7
2017-09-14T05:57:03.512Z,13.7
2017-09-14T06:02:13.388Z,13.7
2017-09-14T06:07:03.351Z,13.6
2017-09-14T06:12:02.866Z,13.7
2017-09-14T06:17:18.269Z,13.8
2017-09-14T06:22:03.342Z,13.8
2017-09-14T06:27:02.720Z,13.9
2017-09-14T06:32:17.377Z,14.0
2017-09-14T06:37:03.022Z,14.0
2017-09-14T06:42:03.349Z,13.9
2017-09-14T06:47:13.315Z,13.7
2017-09-14T06:52:02.742Z,13.5
2017-09-14T06:57:03.292Z,13.3
2017-09-14T07:02:13.136Z,13.1
2017-09-14T07:07:03.116Z,13.1
2017-09-14T07:12:03.554Z,12.9
2017-09-14T07:17:17.702Z,12.8
2017-09-14T07:22:02.830Z,12.5
2017-09-14T07:27:03.323Z,12.5
2017-09-14T07:32:22.458Z,12.4
2017-09-14T07:37:02.844Z,12.3
2017-09-14T07:42:03.317Z,12.3
2017-09-14T07:47:13.126Z,12.4
2017-09-14T07:52:03.458Z,12.4
2017-09-14T07:57:02.990Z,12.6
2017-09-14T08:02:13.430Z,13.1
2017-09-14T08:07:03.447Z,13.2
2017-09-14T08:12:03.156Z,13.2
2017-09-14T08:17:13.898Z,13.3
2017-09-14T08:22:02.970Z,13.2
2017-09-14T08:27:02.771Z,12.8
2017-09-14T08:32:13.484Z,12.8
2017-09-14T08:37:03.140Z,12.8
2017-09-14T08:42:03.526Z,12.9
2017-09-14T08:47:16.885Z,12.8
2017-09-14T08:52:03.051Z,12.7
2017-09-14T08:57:03.476Z,12.7
2017-09-14T09:02:17.349Z,12.6
2017-09-14T09:07:03.211Z,12.5
2017-09-14T09:12:02.815Z,12.5
2017-09-14T09:17:13.901Z,12.6
2017-09-14T09:22:02.678Z,12.6
2017-09-14T09:27:03.050Z,12.7
2017-09-14T09:32:13.601Z,12.7
2017-09-14T09:37:03.403Z,12.7
2017-09-14T09:42:02.820Z,12.6
2017-09-14T09:47:23.202Z,12.5
2017-09-14T09:52:02.710Z,12.6
2017-09-14T09:57:03.207Z,12.6
2017-09-14T10:02:17.821Z,12.7
2017-09-14T10:07:02.764Z,12.9
2017-09-14T10:12:03.399Z,12.8
2017-09-14T10:17:16.758Z,12.6
2017-09-14T10:22:03.203Z,12.6
2017-09-14T10:27:03.596Z,12.4
2017-09-14T10:32:12.421Z,12.3
2017-09-14T10:37:03.330Z,12.4
2017-09-14T10:42:02.792Z,11.8
2017-09-14T10:47:17.169Z,11.8
2017-09-14T10:52:02.794Z,11.8
2017-09-14T10:57:03.310Z,11.6
2017-09-14T11:02:22.149Z,11.6
2017-09-14T11:07:02.784Z,11.7
2017-09-14T11:12:03.451Z,11.7
2017-09-14T11:17:13.330Z,12.3
2017-09-14T11:22:02.827Z,12.2
2017-09-14T11:27:03.297Z,12.2
2017-09-14T11:32:18.030Z,12.4
2017-09-14T11:37:03.381Z,12.5
2017-09-14T11:42:02.743Z,12.6
2017-09-14T11:47:13.557Z,12.4
2017-09-14T11:52:02.826Z,12.3
2017-09-14T11:57:03.348Z,12.2
2017-09-14T12:02:17.331Z,12.2
2017-09-14T12:07:02.897Z,12.2
2017-09-14T12:12:03.431Z,12.1
2017-09-14T12:17:13.299Z,12.2
2017-09-14T12:22:03.424Z,12.4
2017-09-14T12:27:02.931Z,12.4
2017-09-14T12:32:13.578Z,12.4
2017-09-14T12:37:02.992Z,12.5
2017-09-14T12:42:03.423Z,12.6
2017-09-14T12:47:13.860Z,12.6
2017-09-14T12:52:03.383Z,12.5
2017-09-14T12:57:02.888Z,12.9
2017-09-14T13:02:13.319Z,13.3
2017-09-14T13:07:02.820Z,13.5
2017-09-14T13:12:03.303Z,13.5
2017-09-14T13:17:13.606Z,14.9
2017-09-14T13:22:03.075Z,14.9
2017-09-14T13:27:03.460Z,14.6
2017-09-14T13:32:22.535Z,13.9
2017-09-14T13:37:02.779Z,13.5
2017-09-14T13:42:03.166Z,13.5
2017-09-14T13:47:13.397Z,13.5
2017-09-14T13:52:02.737Z,13.5
2017-09-14T13:57:03.233Z,13.5
2017-09-14T14:02:13.057Z,13.3
2017-09-14T14:07:03.495Z,13.1
2017-09-14T14:12:03.232Z,13.1
2017-09-14T14:17:23.466Z,14.0
2017-09-14T14:22:02.890Z,14.3
2017-09-14T14:27:03.398Z,14.3
2017-09-14T14:32:22.481Z,14.0
2017-09-14T14:37:03.219Z,17.7
2017-09-14T14:42:02.948Z,20.1
2017-09-14T14:47:17.216Z,20.0
2017-09-14T14:52:02.822Z,22.9
2017-09-14T14:57:03.241Z,22.8
2017-09-14T15:02:13.138Z,26.6
2017-09-14T15:07:03.489Z,27.4
2017-09-14T15:12:03.104Z,27.4
2017-09-14T15:17:14.072Z,28.4
2017-09-14T15:22:02.721Z,25.4
2017-09-14T15:27:03.243Z,23.7
2017-09-14T15:32:13.633Z,26.4
2017-09-14T15:37:03.278Z,26.4
2017-09-14T15:42:03.593Z,20.4
2017-09-14T15:47:13.437Z,17.2
2017-09-14T15:52:03.530Z,14.8
2017-09-14T15:57:02.888Z,14.7
2017-09-14T16:02:17.946Z,13.4
2017-09-14T16:07:03.046Z,13.4
2017-09-14T16:12:03.431Z,13.1
2017-09-14T16:17:13.355Z,18.6
2017-09-14T16:22:03.078Z,23.3
2017-09-14T16:27:03.401Z,22.3
2017-09-14T16:32:13.243Z,20.3
2017-09-14T16:37:02.955Z,17.4
2017-09-14T16:42:03.424Z,18.1
2017-09-14T16:47:19.300Z,18.1
2017-09-14T16:52:03.421Z,21.5
2017-09-14T16:57:02.898Z,22.9
2017-09-14T17:02:20.542Z,23.7
2017-09-14T17:07:03.312Z,23.2
2017-09-14T17:12:02.866Z,17.9
2017-09-14T17:17:13.930Z,17.8
2017-09-14T17:22:02.879Z,15.2
2017-09-14T17:27:03.338Z,13.9
2017-09-14T17:32:14.118Z,13.1
2017-09-14T17:37:03.158Z,12.6
2017-09-14T17:42:03.568Z,11.9
2017-09-14T17:47:13.550Z,11.7
2017-09-14T17:52:02.709Z,11.7
2017-09-14T17:57:03.081Z,11.4
2017-09-14T18:02:13.946Z,11.3
2017-09-14T18:07:02.975Z,11.2
2017-09-14T18:12:03.556Z,11.2
2017-09-14T18:17:05.377Z,11.1
2017-09-14T18:22:03.332Z,11.2
2017-09-14T18:27:02.810Z,11.2
2017-09-14T18:32:03.101Z,11.3
2017-09-14T18:37:03.404Z,11.2
2017-09-14T18:42:02.772Z,11.3
2017-09-14T18:47:03.055Z,11.4
2017-09-14T18:52:03.371Z,11.4
2017-09-14T18:57:02.654Z,11.3
2017-09-14T19:02:02.998Z,11.4
2017-09-14T19:07:03.365Z,11.4
2017-09-14T19:12:02.899Z,11.4
2017-09-14T19:17:03.185Z,11.2
2017-09-14T19:22:03.489Z,11.2
2017-09-14T19:27:02.880Z,11.2
2017-09-14T19:32:03.157Z,11.2
2017-09-14T19:37:03.473Z,11.2
2017-09-14T19:42:02.819Z,11.2
2017-09-14T19:47:03.138Z,11.3
2017-09-14T19:52:03.449Z,11.2
2017-09-14T19:57:02.842Z,11.3
2017-09-14T20:02:03.169Z,11.1
2017-09-14T20:07:03.449Z,11.1
2017-09-14T20:12:02.951Z,11.2
2017-09-14T20:17:03.326Z,11.2
2017-09-14T20:22:02.666Z,11.2
2017-09-14T20:27:03.046Z,11.2
2017-09-14T20:32:03.286Z,11.1
2017-09-14T20:37:03.579Z,11.2
2017-09-14T20:42:02.944Z,11.2
2017-09-14T20:47:03.257Z,11.2
2017-09-14T20:52:03.596Z,11.2
2017-09-14T20:57:02.950Z,11.1
2017-09-14T21:02:03.275Z,11.1
2017-09-14T21:07:02.855Z,11.1
2017-09-14T21:12:03.131Z,11.0
2017-09-14T21:17:03.484Z,11.1
2017-09-14T21:22:02.967Z,11.1
2017-09-14T21:27:03.269Z,11.0
2017-09-14T21:32:03.616Z,11.0
2017-09-14T21:37:03.071Z,10.9
2017-09-14T21:42:03.255Z,10.9
2017-09-14T21:47:03.652Z,10.8
2017-09-14T21:52:02.986Z,10.8
2017-09-14T21:57:03.256Z,10.8
2017-09-14T22:02:02.599Z,10.6
2017-09-14T22:07:03.514Z,10.6
2017-09-14T22:12:02.904Z,10.5
2017-09-14T22:22:03.818Z,10.5
2017-09-14T22:27:03.552Z,10.5
2017-09-14T22:32:03.652Z,10.4
2017-09-14T22:37:03.524Z,10.6
2017-09-14T22:42:03.433Z,10.6
2017-09-14T22:47:03.197Z,10.7
2017-09-14T22:52:03.123Z,10.8
2017-09-14T22:57:02.688Z,10.7
2017-09-14T23:02:03.217Z,10.8
2017-09-14T23:07:03.161Z,10.8
2017-09-14T23:12:03.104Z,10.9
2017-09-14T23:17:02.973Z,10.9
2017-09-14T23:22:03.467Z,10.9
2017-09-14T23:27:03.335Z,10.9
2017-09-14T23:32:03.188Z,11.0
2017-09-14T23:37:03.178Z,11.0
2017-09-14T23:42:03.050Z,11.1
2017-09-14T23:47:02.928Z,11.2
2017-09-14T23:52:03.557Z,11.2
2017-09-14T23:57:03.249Z,11.1
